sensor_id;sensor_type;location;lat;lon;timestamp;pressure;altitude;pressure_sealevel;temperature;humidity
75036;BME280;64247;51.540;5.854;2023-01-20T00:00:37;100743.25;;;-0.53;100.00
75036;BME280;64247;51.540;5.854;2023-01-20T00:02:40;100747.03;;;-0.54;100.00
75036;BME280;64247;51.540;5.854;2023-01-20T00:04:47;100743.25;;;-0.53;100.00
75036;BME280;64247;51.540;5.854;2023-01-20T00:06:52;100752.34;;;-0.54;100.00
75036;BME280;64247;51.540;5.854;2023-01-20T00:08:57;100751.53;;;-0.54;100.00
75036;BME280;64247;51.540;5.854;2023-01-20T00:11:08;100758.47;;;-0.53;100.00
75036;BME280;64247;51.540;5.854;2023-01-20T00:13:12;100749.94;;;-0.50;100.00
75036;BME280;64247;51.540;5.854;2023-01-20T00:15:13;100750.75;;;-0.50;100.00
75036;BME280;64247;51.540;5.854;2023-01-20T00:17:14;100751.28;;;-0.47;100.00
75036;BME280;64247;51.540;5.854;2023-01-20T00:19:16;100750.22;;;-0.46;100.00
75036;BME280;64247;51.540;5.854;2023-01-20T00:21:17;100752.88;;;-0.46;100.00
75036;BME280;64247;51.540;5.854;2023-01-20T00:23:18;100755.53;;;-0.46;100.00
75036;BME280;64247;51.540;5.854;2023-01-20T00:25:19;100744.34;;;-0.49;100.00
75036;BME280;64247;51.540;5.854;2023-01-20T00:27:21;100747.81;;;-0.43;100.00
75036;BME280;64247;51.540;5.854;2023-01-20T00:29:22;100750.47;;;-0.43;100.00
75036;BME280;64247;51.540;5.854;2023-01-20T00:31:30;100755.53;;;-0.41;100.00
75036;BME280;64247;51.540;5.854;2023-01-20T00:33:31;100753.94;;;-0.42;100.00
75036;BME280;64247;51.540;5.854;2023-01-20T00:35:32;100753.13;;;-0.43;100.00
75036;BME280;64247;51.540;5.854;2023-01-20T00:37:33;100763.00;;;-0.49;100.00
75036;BME280;64247;51.540;5.854;2023-01-20T00:39:34;100763.25;;;-0.55;100.00
75036;BME280;64247;51.540;5.854;2023-01-20T00:41:35;100767.00;;;-0.56;100.00
75036;BME280;64247;51.540;5.854;2023-01-20T00:43:36;100767.25;;;-0.53;100.00
75036;BME280;64247;51.540;5.854;2023-01-20T00:45:39;100770.19;;;-0.49;100.00
75036;BME280;64247;51.540;5.854;2023-01-20T00:47:40;100769.66;;;-0.41;100.00
75036;BME280;64247;51.540;5.854;2023-01-20T00:49:41;100781.13;;;-0.40;100.00
75036;BME280;64247;51.540;5.854;2023-01-20T00:51:42;100779.78;;;-0.38;100.00
75036;BME280;64247;51.540;5.854;2023-01-20T00:53:43;100787.78;;;-0.33;100.00
75036;BME280;64247;51.540;5.854;2023-01-20T00:55:43;100785.13;;;-0.27;100.00
75036;BME280;64247;51.540;5.854;2023-01-20T00:57:45;100793.91;;;-0.22;100.00
75036;BME280;64247;51.540;5.854;2023-01-20T00:59:46;100791.25;;;-0.17;100.00
75036;BME280;64247;51.540;5.854;2023-01-20T01:01:47;100783.22;;;-0.11;100.00
75036;BME280;64247;51.540;5.854;2023-01-20T01:03:48;100786.97;;;-0.12;100.00
75036;BME280;64247;51.540;5.854;2023-01-20T01:05:48;100786.16;;;-0.13;100.00
75036;BME280;64247;51.540;5.854;2023-01-20T01:07:49;100793.38;;;-0.19;100.00
75036;BME280;64247;51.540;5.854;2023-01-20T01:09:50;100789.38;;;-0.26;100.00
75036;BME280;64247;51.540;5.854;2023-01-20T01:11:52;100789.66;;;-0.33;100.00
75036;BME280;64247;51.540;5.854;2023-01-20T01:13:54;100790.47;;;-0.27;100.00
75036;BME280;64247;51.540;5.854;2023-01-20T01:15:56;100789.38;;;-0.21;100.00
75036;BME280;64247;51.540;5.854;2023-01-20T01:17:57;100801.13;;;-0.22;100.00
75036;BME280;64247;51.540;5.854;2023-01-20T01:19:59;100801.38;;;-0.29;100.00
75036;BME280;64247;51.540;5.854;2023-01-20T01:22:00;100798.19;;;-0.36;100.00
75036;BME280;64247;51.540;5.854;2023-01-20T01:24:01;100806.19;;;-0.41;100.00
75036;BME280;64247;51.540;5.854;2023-01-20T01:26:02;100802.19;;;-0.39;100.00
75036;BME280;64247;51.540;5.854;2023-01-20T01:28:03;100799.50;;;-0.34;100.00
75036;BME280;64247;51.540;5.854;2023-01-20T01:30:05;100803.53;;;-0.26;100.00
75036;BME280;64247;51.540;5.854;2023-01-20T01:32:06;100800.56;;;-0.24;100.00
75036;BME280;64247;51.540;5.854;2023-01-20T01:34:07;100802.19;;;-0.28;100.00
75036;BME280;64247;51.540;5.854;2023-01-20T01:36:11;100807.28;;;-0.32;100.00
75036;BME280;64247;51.540;5.854;2023-01-20T01:38:13;100810.47;;;-0.40;100.00
75036;BME280;64247;51.540;5.854;2023-01-20T01:40:14;100799.53;;;-0.44;100.00
75036;BME280;64247;51.540;5.854;2023-01-20T01:42:17;100804.06;;;-0.50;100.00
75036;BME280;64247;51.540;5.854;2023-01-20T01:44:24;100812.09;;;-0.55;100.00
75036;BME280;64247;51.540;5.854;2023-01-20T01:46:27;100818.75;;;-0.52;100.00
75036;BME280;64247;51.540;5.854;2023-01-20T01:48:39;100825.66;;;-0.56;100.00
75036;BME280;64247;51.540;5.854;2023-01-20T01:53:28;100818.47;;;-0.51;100.00
75036;BME280;64247;51.540;5.854;2023-01-20T01:55:36;100825.66;;;-0.41;100.00
75036;BME280;64247;51.540;5.854;2023-01-20T01:57:43;100829.41;;;-0.37;100.00
75036;BME280;64247;51.540;5.854;2023-01-20T01:59:46;100828.06;;;-0.34;100.00
75036;BME280;64247;51.540;5.854;2023-01-20T02:01:50;100832.59;;;-0.40;100.00
75036;BME280;64247;51.540;5.854;2023-01-20T02:03:59;100830.19;;;-0.52;100.00
75036;BME280;64247;51.540;5.854;2023-01-20T02:06:09;100836.88;;;-0.59;100.00
75036;BME280;64247;51.540;5.854;2023-01-20T02:08:11;100832.59;;;-0.55;100.00
75036;BME280;64247;51.540;5.854;2023-01-20T02:10:13;100831.53;;;-0.59;100.00
75036;BME280;64247;51.540;5.854;2023-01-20T02:12:17;100838.75;;;-0.55;100.00
75036;BME280;64247;51.540;5.854;2023-01-20T02:14:26;100843.53;;;-0.52;100.00
75036;BME280;64247;51.540;5.854;2023-01-20T02:17:08;100827.81;;;-0.53;100.00
75036;BME280;64247;51.540;5.854;2023-01-20T02:25:38;100836.31;;;-0.77;100.00
75036;BME280;64247;51.540;5.854;2023-01-20T02:28:14;100834.97;;;-0.80;100.00
75036;BME280;64247;51.540;5.854;2023-01-20T02:36:49;100842.16;;;-0.80;100.00
75036;BME280;64247;51.540;5.854;2023-01-20T02:41:44;100844.56;;;-0.78;100.00
75036;BME280;64247;51.540;5.854;2023-01-20T02:44:57;100847.78;;;-0.71;100.00
75036;BME280;64247;51.540;5.854;2023-01-20T02:48:21;100854.19;;;-0.72;100.00
75036;BME280;64247;51.540;5.854;2023-01-20T02:54:20;100849.91;;;-0.73;100.00
75036;BME280;64247;51.540;5.854;2023-01-20T02:57:33;100864.31;;;-0.64;100.00
75036;BME280;64247;51.540;5.854;2023-01-20T03:00:24;100864.06;;;-0.73;100.00
75036;BME280;64247;51.540;5.854;2023-01-20T03:02:32;100864.84;;;-0.77;100.00
75036;BME280;64247;51.540;5.854;2023-01-20T03:05:03;100867.22;;;-0.81;100.00
75036;BME280;64247;51.540;5.854;2023-01-20T03:07:08;100871.47;;;-0.85;100.00
75036;BME280;64247;51.540;5.854;2023-01-20T03:09:15;100873.34;;;-0.75;100.00
75036;BME280;64247;51.540;5.854;2023-01-20T03:11:20;100873.91;;;-0.68;100.00
75036;BME280;64247;51.540;5.854;2023-01-20T03:13:57;100878.19;;;-0.62;100.00
75036;BME280;64247;51.540;5.854;2023-01-20T03:16:12;100870.47;;;-0.58;100.00
75036;BME280;64247;51.540;5.854;2023-01-20T03:18:33;100870.19;;;-0.57;100.00
75036;BME280;64247;51.540;5.854;2023-01-20T03:20:35;100877.41;;;-0.52;100.00
75036;BME280;64247;51.540;5.854;2023-01-20T03:22:36;100879.25;;;-0.58;100.00
75036;BME280;64247;51.540;5.854;2023-01-20T03:24:40;100883.28;;;-0.50;100.00
75036;BME280;64247;51.540;5.854;2023-01-20T03:26:44;100883.00;;;-0.43;100.00
75036;BME280;64247;51.540;5.854;2023-01-20T03:28:46;100880.63;;;-0.45;100.00
75036;BME280;64247;51.540;5.854;2023-01-20T03:30:48;100872.91;;;-0.31;100.00
75036;BME280;64247;51.540;5.854;2023-01-20T03:32:50;100878.47;;;-0.38;100.00
75036;BME280;64247;51.540;5.854;2023-01-20T03:34:54;100881.41;;;-0.50;100.00
75036;BME280;64247;51.540;5.854;2023-01-20T03:36:57;100875.28;;;-0.50;100.00
75036;BME280;64247;51.540;5.854;2023-01-20T03:39:00;100876.63;;;-0.47;100.00
75036;BME280;64247;51.540;5.854;2023-01-20T03:41:18;100865.66;;;-0.46;100.00
75036;BME280;64247;51.540;5.854;2023-01-20T03:43:54;100870.75;;;-0.50;100.00
75036;BME280;64247;51.540;5.854;2023-01-20T03:46:23;100868.06;;;-0.55;100.00
75036;BME280;64247;51.540;5.854;2023-01-20T03:48:58;100860.88;;;-0.59;100.00
75036;BME280;64247;51.540;5.854;2023-01-20T03:54:15;100865.13;;;-0.58;100.00
75036;BME280;64247;51.540;5.854;2023-01-20T03:56:29;100870.97;;;-0.56;100.00
75036;BME280;64247;51.540;5.854;2023-01-20T03:58:54;100873.38;;;-0.60;100.00
75036;BME280;64247;51.540;5.854;2023-01-20T04:01:03;100875.81;;;-0.58;100.00
75036;BME280;64247;51.540;5.854;2023-01-20T04:03:14;100879.78;;;-0.61;100.00
75036;BME280;64247;51.540;5.854;2023-01-20T04:05:18;100894.72;;;-0.65;100.00
75036;BME280;64247;51.540;5.854;2023-01-20T04:07:22;100889.38;;;-0.65;100.00
75036;BME280;64247;51.540;5.854;2023-01-20T04:09:31;100884.31;;;-0.56;100.00
75036;BME280;64247;51.540;5.854;2023-01-20T04:11:38;100875.81;;;-0.48;100.00
75036;BME280;64247;51.540;5.854;2023-01-20T04:13:39;100890.75;;;-0.52;100.00
75036;BME280;64247;51.540;5.854;2023-01-20T04:15:40;100886.97;;;-0.56;100.00
75036;BME280;64247;51.540;5.854;2023-01-20T04:17:43;100886.19;;;-0.57;100.00
75036;BME280;64247;51.540;5.854;2023-01-20T04:19:45;100885.09;;;-0.61;100.00
75036;BME280;64247;51.540;5.854;2023-01-20T04:21:52;100882.72;;;-0.62;100.00
75036;BME280;64247;51.540;5.854;2023-01-20T04:24:48;100888.88;;;-0.57;100.00
75036;BME280;64247;51.540;5.854;2023-01-20T04:26:54;100897.66;;;-0.61;100.00
75036;BME280;64247;51.540;5.854;2023-01-20T04:28:55;100892.59;;;-0.58;100.00
75036;BME280;64247;51.540;5.854;2023-01-20T04:30:56;100889.41;;;-0.55;100.00
75036;BME280;64247;51.540;5.854;2023-01-20T04:32:57;100894.19;;;-0.57;100.00
75036;BME280;64247;51.540;5.854;2023-01-20T04:34:57;100892.31;;;-0.56;100.00
75036;BME280;64247;51.540;5.854;2023-01-20T04:36:58;100888.34;;;-0.54;100.00
75036;BME280;64247;51.540;5.854;2023-01-20T04:38:59;100893.38;;;-0.57;100.00
75036;BME280;64247;51.540;5.854;2023-01-20T04:41:00;100893.66;;;-0.59;100.00
75036;BME280;64247;51.540;5.854;2023-01-20T04:43:01;100904.03;;;-0.68;100.00
75036;BME280;64247;51.540;5.854;2023-01-20T04:45:03;100902.94;;;-0.72;100.00
75036;BME280;64247;51.540;5.854;2023-01-20T04:47:04;100898.94;;;-0.74;100.00
75036;BME280;64247;51.540;5.854;2023-01-20T04:49:05;100898.94;;;-0.74;100.00
75036;BME280;64247;51.540;5.854;2023-01-20T04:51:07;100908.81;;;-0.70;100.00
75036;BME280;64247;51.540;5.854;2023-01-20T04:53:12;100906.72;;;-0.68;100.00
75036;BME280;64247;51.540;5.854;2023-01-20T04:55:16;100907.78;;;-0.69;100.00
75036;BME280;64247;51.540;5.854;2023-01-20T04:57:17;100912.28;;;-0.74;100.00
75036;BME280;64247;51.540;5.854;2023-01-20T04:59:18;100908.28;;;-0.77;100.00
75036;BME280;64247;51.540;5.854;2023-01-20T05:01:19;100913.88;;;-0.73;100.00
75036;BME280;64247;51.540;5.854;2023-01-20T05:03:19;100912.03;;;-0.68;100.00
75036;BME280;64247;51.540;5.854;2023-01-20T05:05:20;100902.44;;;-0.74;100.00
75036;BME280;64247;51.540;5.854;2023-01-20T05:07:21;100904.28;;;-0.74;100.00
75036;BME280;64247;51.540;5.854;2023-01-20T05:09:22;100918.16;;;-0.72;100.00
75036;BME280;64247;51.540;5.854;2023-01-20T05:11:23;100914.69;;;-0.73;100.00
75036;BME280;64247;51.540;5.854;2023-01-20T05:13:24;100912.28;;;-0.74;100.00
75036;BME280;64247;51.540;5.854;2023-01-20T05:15:25;100921.09;;;-0.74;100.00
75036;BME280;64247;51.540;5.854;2023-01-20T05:17:27;100920.56;;;-0.76;100.00
75036;BME280;64247;51.540;5.854;2023-01-20T05:19:27;100915.22;;;-0.76;100.00
75036;BME280;64247;51.540;5.854;2023-01-20T05:21:28;100920.81;;;-0.77;100.00
75036;BME280;64247;51.540;5.854;2023-01-20T05:23:29;100922.94;;;-0.74;100.00
75036;BME280;64247;51.540;5.854;2023-01-20T05:25:30;100927.22;;;-0.73;100.00
75036;BME280;64247;51.540;5.854;2023-01-20T05:27:34;100929.09;;;-0.74;100.00
75036;BME280;64247;51.540;5.854;2023-01-20T05:29:36;100921.63;;;-0.72;100.00
75036;BME280;64247;51.540;5.854;2023-01-20T05:31:37;100932.81;;;-0.70;100.00
75036;BME280;64247;51.540;5.854;2023-01-20T05:33:43;100926.44;;;-0.69;100.00
75036;BME280;64247;51.540;5.854;2023-01-20T05:35:44;100932.03;;;-0.65;100.00
75036;BME280;64247;51.540;5.854;2023-01-20T05:37:45;100931.75;;;-0.64;100.00
75036;BME280;64247;51.540;5.854;2023-01-20T05:39:46;100933.66;;;-0.64;100.00
75036;BME280;64247;51.540;5.854;2023-01-20T05:41:47;100940.03;;;-0.60;100.00
75036;BME280;64247;51.540;5.854;2023-01-20T05:43:48;100930.44;;;-0.61;100.00
75036;BME280;64247;51.540;5.854;2023-01-20T05:45:52;100936.84;;;-0.62;100.00
75036;BME280;64247;51.540;5.854;2023-01-20T05:47:56;100937.09;;;-0.64;100.00
75036;BME280;64247;51.540;5.854;2023-01-20T05:49:58;100937.09;;;-0.69;100.00
75036;BME280;64247;51.540;5.854;2023-01-20T05:51:59;100932.81;;;-0.70;100.00
75036;BME280;64247;51.540;5.854;2023-01-20T05:54:00;100936.53;;;-0.71;100.00
75036;BME280;64247;51.540;5.854;2023-01-20T05:56:03;100936.31;;;-0.69;100.00
75036;BME280;64247;51.540;5.854;2023-01-20T05:58:05;100929.59;;;-0.72;100.00
75036;BME280;64247;51.540;5.854;2023-01-20T06:00:08;100939.22;;;-0.71;100.00
75036;BME280;64247;51.540;5.854;2023-01-20T06:02:09;100938.69;;;-0.68;100.00
75036;BME280;64247;51.540;5.854;2023-01-20T06:04:12;100942.94;;;-0.72;100.00
75036;BME280;64247;51.540;5.854;2023-01-20T06:06:13;100946.69;;;-0.73;100.00
75036;BME280;64247;51.540;5.854;2023-01-20T06:08:16;100943.19;;;-0.78;100.00
75036;BME280;64247;51.540;5.854;2023-01-20T06:10:17;100945.03;;;-0.84;100.00
75036;BME280;64247;51.540;5.854;2023-01-20T06:12:18;100947.16;;;-0.86;100.00
75036;BME280;64247;51.540;5.854;2023-01-20T06:14:19;100956.22;;;-0.87;100.00
75036;BME280;64247;51.540;5.854;2023-01-20T06:16:20;100950.88;;;-0.87;100.00
75036;BME280;64247;51.540;5.854;2023-01-20T06:18:21;100946.38;;;-0.87;100.00
75036;BME280;64247;51.540;5.854;2023-01-20T06:20:22;100949.03;;;-0.87;100.00
75036;BME280;64247;51.540;5.854;2023-01-20T06:22:23;100954.38;;;-0.87;100.00
75036;BME280;64247;51.540;5.854;2023-01-20T06:24:25;100946.09;;;-0.85;100.00
75036;BME280;64247;51.540;5.854;2023-01-20T06:26:26;100967.44;;;-0.80;100.00
75036;BME280;64247;51.540;5.854;2023-01-20T06:28:27;100952.00;;;-0.78;100.00
75036;BME280;64247;51.540;5.854;2023-01-20T06:30:28;100965.03;;;-0.87;100.00
75036;BME280;64247;51.540;5.854;2023-01-20T06:32:30;100962.63;;;-0.88;100.00
75036;BME280;64247;51.540;5.854;2023-01-20T06:34:31;100956.19;;;-0.92;100.00
75036;BME280;64247;51.540;5.854;2023-01-20T06:36:31;100956.47;;;-0.94;100.00
75036;BME280;64247;51.540;5.854;2023-01-20T06:38:34;100961.25;;;-0.91;100.00
75036;BME280;64247;51.540;5.854;2023-01-20T06:40:35;100962.09;;;-0.90;100.00
75036;BME280;64247;51.540;5.854;2023-01-20T06:42:36;100959.69;;;-0.87;100.00
75036;BME280;64247;51.540;5.854;2023-01-20T06:44:37;100957.03;;;-0.82;100.00
75036;BME280;64247;51.540;5.854;2023-01-20T06:46:38;100962.09;;;-0.80;100.00
75036;BME280;64247;51.540;5.854;2023-01-20T06:48:40;100964.75;;;-0.80;100.00
75036;BME280;64247;51.540;5.854;2023-01-20T06:50:41;100964.53;;;-0.78;100.00
75036;BME280;64247;51.540;5.854;2023-01-20T06:52:42;100962.66;;;-0.78;100.00
75036;BME280;64247;51.540;5.854;2023-01-20T06:54:43;100966.13;;;-0.72;100.00
75036;BME280;64247;51.540;5.854;2023-01-20T06:56:44;100959.47;;;-0.75;100.00
75036;BME280;64247;51.540;5.854;2023-01-20T06:58:45;100967.75;;;-0.71;100.00
75036;BME280;64247;51.540;5.854;2023-01-20T07:00:46;100965.34;;;-0.68;100.00
75036;BME280;64247;51.540;5.854;2023-01-20T07:02:47;100969.91;;;-0.63;100.00
75036;BME280;64247;51.540;5.854;2023-01-20T07:04:51;100985.34;;;-0.70;100.00
75036;BME280;64247;51.540;5.854;2023-01-20T07:06:52;100979.75;;;-0.74;100.00
75036;BME280;64247;51.540;5.854;2023-01-20T07:08:53;100993.31;;;-0.75;100.00
75036;BME280;64247;51.540;5.854;2023-01-20T07:10:55;100986.38;;;-0.76;100.00
75036;BME280;64247;51.540;5.854;2023-01-20T07:12:56;100997.84;;;-0.76;100.00
75036;BME280;64247;51.540;5.854;2023-01-20T07:14:57;101000.78;;;-0.72;100.00
75036;BME280;64247;51.540;5.854;2023-01-20T07:16:58;101003.72;;;-0.74;100.00
75036;BME280;64247;51.540;5.854;2023-01-20T07:18:59;101000.53;;;-0.71;100.00
75036;BME280;64247;51.540;5.854;2023-01-20T07:20:59;100989.34;;;-0.68;100.00
75036;BME280;64247;51.540;5.854;2023-01-20T07:23:02;100996.03;;;-0.60;100.00
75036;BME280;64247;51.540;5.854;2023-01-20T07:25:03;100996.34;;;-0.51;100.00
75036;BME280;64247;51.540;5.854;2023-01-20T07:27:04;101010.19;;;-0.49;100.00
75036;BME280;64247;51.540;5.854;2023-01-20T07:29:05;101002.19;;;-0.49;100.00
75036;BME280;64247;51.540;5.854;2023-01-20T07:31:14;100998.19;;;-0.52;100.00
75036;BME280;64247;51.540;5.854;2023-01-20T07:33:17;100997.97;;;-0.45;100.00
75036;BME280;64247;51.540;5.854;2023-01-20T07:35:18;101003.03;;;-0.38;100.00
75036;BME280;64247;51.540;5.854;2023-01-20T07:37:19;101007.56;;;-0.34;100.00
75036;BME280;64247;51.540;5.854;2023-01-20T07:39:20;101007.84;;;-0.30;100.00
75036;BME280;64247;51.540;5.854;2023-01-20T07:41:21;101017.22;;;-0.27;100.00
75036;BME280;64247;51.540;5.854;2023-01-20T07:43:23;101014.56;;;-0.27;100.00
75036;BME280;64247;51.540;5.854;2023-01-20T07:45:24;101025.22;;;-0.27;100.00
75036;BME280;64247;51.540;5.854;2023-01-20T07:47:25;101021.22;;;-0.25;100.00
75036;BME280;64247;51.540;5.854;2023-01-20T07:49:26;101012.44;;;-0.20;100.00
75036;BME280;64247;51.540;5.854;2023-01-20T07:51:28;101020.16;;;-0.13;100.00
75036;BME280;64247;51.540;5.854;2023-01-20T07:53:29;101027.66;;;-0.10;100.00
75036;BME280;64247;51.540;5.854;2023-01-20T07:55:35;101019.09;;;-0.07;100.00
75036;BME280;64247;51.540;5.854;2023-01-20T07:57:36;101024.72;;;-0.04;100.00
75036;BME280;64247;51.540;5.854;2023-01-20T07:59:37;101016.47;;;-0.02;100.00
75036;BME280;64247;51.540;5.854;2023-01-20T08:01:38;101017.25;;;-0.02;100.00
75036;BME280;64247;51.540;5.854;2023-01-20T08:03:38;101021.00;;;0.03;100.00
75036;BME280;64247;51.540;5.854;2023-01-20T08:05:40;101016.19;;;0.05;100.00
75036;BME280;64247;51.540;5.854;2023-01-20T08:07:41;101009.78;;;0.06;100.00
75036;BME280;64247;51.540;5.854;2023-01-20T08:09:42;101012.22;;;0.07;100.00
75036;BME280;64247;51.540;5.854;2023-01-20T08:11:43;101017.78;;;0.06;100.00
75036;BME280;64247;51.540;5.854;2023-01-20T08:13:44;101017.78;;;0.06;100.00
75036;BME280;64247;51.540;5.854;2023-01-20T08:15:46;101026.63;;;0.06;100.00
75036;BME280;64247;51.540;5.854;2023-01-20T08:17:46;101017.53;;;0.07;100.00
75036;BME280;64247;51.540;5.854;2023-01-20T08:19:53;101025.28;;;0.09;100.00
75036;BME280;64247;51.540;5.854;2023-01-20T08:21:54;101025.56;;;0.07;100.00
75036;BME280;64247;51.540;5.854;2023-01-20T08:23:56;101027.41;;;0.07;100.00
75036;BME280;64247;51.540;5.854;2023-01-20T08:26:01;101027.13;;;0.03;100.00
75036;BME280;64247;51.540;5.854;2023-01-20T08:28:06;101028.47;;;0.01;100.00
75036;BME280;64247;51.540;5.854;2023-01-20T08:30:07;101023.66;;;-0.03;100.00
75036;BME280;64247;51.540;5.854;2023-01-20T08:32:09;101026.59;;;0.01;100.00
75036;BME280;64247;51.540;5.854;2023-01-20T08:34:09;101029.25;;;0.01;100.00
75036;BME280;64247;51.540;5.854;2023-01-20T08:36:18;101020.47;;;0.01;100.00
75036;BME280;64247;51.540;5.854;2023-01-20T08:38:23;101029.00;;;0.03;100.00
75036;BME280;64247;51.540;5.854;2023-01-20T08:40:25;101031.41;;;0.04;100.00
75036;BME280;64247;51.540;5.854;2023-01-20T08:42:25;101034.63;;;0.06;100.00
75036;BME280;64247;51.540;5.854;2023-01-20T08:44:26;101030.63;;;0.09;100.00
75036;BME280;64247;51.540;5.854;2023-01-20T08:46:28;101038.91;;;0.12;100.00
75036;BME280;64247;51.540;5.854;2023-01-20T08:48:29;101031.94;;;0.17;100.00
75036;BME280;64247;51.540;5.854;2023-01-20T08:50:30;101029.03;;;0.18;100.00
75036;BME280;64247;51.540;5.854;2023-01-20T08:52:34;101026.38;;;0.18;100.00
75036;BME280;64247;51.540;5.854;2023-01-20T08:54:35;101024.75;;;0.17;100.00
75036;BME280;64247;51.540;5.854;2023-01-20T08:56:36;101025.31;;;0.19;100.00
75036;BME280;64247;51.540;5.854;2023-01-20T08:58:37;101033.03;;;0.21;100.00
75036;BME280;64247;51.540;5.854;2023-01-20T09:00:39;101022.34;;;0.21;100.00
75036;BME280;64247;51.540;5.854;2023-01-20T09:02:39;101032.47;;;0.24;100.00
75036;BME280;64247;51.540;5.854;2023-01-20T09:04:40;101024.75;;;0.22;100.00
75036;BME280;64247;51.540;5.854;2023-01-20T09:06:42;101024.75;;;0.22;100.00
75036;BME280;64247;51.540;5.854;2023-01-20T09:08:45;101025.03;;;0.21;100.00
75036;BME280;64247;51.540;5.854;2023-01-20T09:10:47;101022.09;;;0.17;100.00
75036;BME280;64247;51.540;5.854;2023-01-20T09:12:48;101018.88;;;0.10;100.00
75036;BME280;64247;51.540;5.854;2023-01-20T09:14:49;101029.81;;;-0.02;100.00
75036;BME280;64247;51.540;5.854;2023-01-20T09:16:50;101046.59;;;-0.07;100.00
75036;BME280;64247;51.540;5.854;2023-01-20T09:18:51;101045.50;;;-0.11;100.00
75036;BME280;64247;51.540;5.854;2023-01-20T09:20:52;101046.56;;;-0.17;100.00
75036;BME280;64247;51.540;5.854;2023-01-20T09:22:53;101044.72;;;-0.17;100.00
75036;BME280;64247;51.540;5.854;2023-01-20T09:24:54;101048.41;;;-0.23;100.00
75036;BME280;64247;51.540;5.854;2023-01-20T09:26:55;101046.56;;;-0.22;100.00
75036;BME280;64247;51.540;5.854;2023-01-20T09:28:56;101054.56;;;-0.22;100.00
75036;BME280;64247;51.540;5.854;2023-01-20T09:31:01;101060.97;;;-0.23;100.00
75036;BME280;64247;51.540;5.854;2023-01-20T09:33:05;101068.97;;;-0.23;100.00
75036;BME280;64247;51.540;5.854;2023-01-20T09:35:06;101066.84;;;-0.21;100.00
75036;BME280;64247;51.540;5.854;2023-01-20T09:37:07;101069.53;;;-0.21;100.00
75036;BME280;64247;51.540;5.854;2023-01-20T09:39:27;101074.06;;;-0.17;100.00
75036;BME280;64247;51.540;5.854;2023-01-20T09:41:47;101067.94;;;-0.12;100.00
75036;BME280;64247;51.540;5.854;2023-01-20T09:53:02;101072.25;;;0.10;100.00
75036;BME280;64247;51.540;5.854;2023-01-20T09:55:45;101071.19;;;0.16;100.00
75036;BME280;64247;51.540;5.854;2023-01-20T10:01:40;101074.94;;;0.20;100.00
75036;BME280;64247;51.540;5.854;2023-01-20T10:04:16;101079.47;;;0.25;100.00
75036;BME280;64247;51.540;5.854;2023-01-20T10:09:01;101073.34;;;0.24;100.00
75036;BME280;64247;51.540;5.854;2023-01-20T10:11:14;101073.63;;;0.23;100.00
75036;BME280;64247;51.540;5.854;2023-01-20T10:15:53;101071.47;;;0.25;100.00
75036;BME280;64247;51.540;5.854;2023-01-20T10:18:38;101064.00;;;0.27;100.00
75036;BME280;64247;51.540;5.854;2023-01-20T10:21:54;101056.28;;;0.25;100.00
75036;BME280;64247;51.540;5.854;2023-01-20T10:25:21;101073.59;;;0.18;100.00
75036;BME280;64247;51.540;5.854;2023-01-20T10:27:27;101072.00;;;0.11;100.00
75036;BME280;64247;51.540;5.854;2023-01-20T10:29:43;101071.44;;;0.09;100.00
75036;BME280;64247;51.540;5.854;2023-01-20T10:32:00;101080.25;;;0.05;100.00
75036;BME280;64247;51.540;5.854;2023-01-20T10:34:08;101078.91;;;0.02;100.00
75036;BME280;64247;51.540;5.854;2023-01-20T10:36:26;101081.06;;;0.00;100.00
75036;BME280;64247;51.540;5.854;2023-01-20T10:38:52;101077.28;;;-0.04;100.00
75036;BME280;64247;51.540;5.854;2023-01-20T10:41:12;101089.84;;;-0.05;100.00
75036;BME280;64247;51.540;5.854;2023-01-20T10:43:36;101086.63;;;-0.07;100.00
75036;BME280;64247;51.540;5.854;2023-01-20T10:57:33;101084.53;;;0.01;100.00
75036;BME280;64247;51.540;5.854;2023-01-20T10:59:50;101081.31;;;-0.02;100.00
75036;BME280;64247;51.540;5.854;2023-01-20T11:02:00;101083.44;;;-0.04;100.00
75036;BME280;64247;51.540;5.854;2023-01-20T11:04:17;101077.03;;;-0.03;100.00
75036;BME280;64247;51.540;5.854;2023-01-20T11:06:23;101078.09;;;-0.04;100.00
75036;BME280;64247;51.540;5.854;2023-01-20T11:08:29;101078.41;;;0.00;100.00
75036;BME280;64247;51.540;5.854;2023-01-20T11:10:31;101078.66;;;0.04;100.00
75036;BME280;64247;51.540;5.854;2023-01-20T11:12:35;101070.38;;;0.05;100.00
75036;BME280;64247;51.540;5.854;2023-01-20T11:14:42;101069.06;;;0.08;100.00
75036;BME280;64247;51.540;5.854;2023-01-20T11:16:43;101075.44;;;0.12;100.00
75036;BME280;64247;51.540;5.854;2023-01-20T11:18:59;101075.72;;;0.15;100.00
75036;BME280;64247;51.540;5.854;2023-01-20T11:21:08;101066.41;;;0.18;100.00
75036;BME280;64247;51.540;5.854;2023-01-20T11:23:23;101079.22;;;0.21;100.00
75036;BME280;64247;51.540;5.854;2023-01-20T11:25:56;101080.81;;;0.27;100.00
75036;BME280;64247;51.540;5.854;2023-01-20T11:28:18;101077.91;;;0.29;100.00
75036;BME280;64247;51.540;5.854;2023-01-20T11:30:28;101082.41;;;0.28;100.00
75036;BME280;64247;51.540;5.854;2023-01-20T11:32:34;101089.91;;;0.31;100.00
75036;BME280;64247;51.540;5.854;2023-01-20T11:34:47;101078.97;;;0.33;100.00
75036;BME280;64247;51.540;5.854;2023-01-20T11:39:33;101082.97;;;0.36;100.00
75036;BME280;64247;51.540;5.854;2023-01-20T11:41:41;101090.19;;;0.35;100.00
75036;BME280;64247;51.540;5.854;2023-01-20T11:43:42;101080.28;;;0.36;100.00
75036;BME280;64247;51.540;5.854;2023-01-20T11:45:44;101085.38;;;0.37;100.00
75036;BME280;64247;51.540;5.854;2023-01-20T11:47:45;101077.63;;;0.36;100.00
75036;BME280;64247;51.540;5.854;2023-01-20T11:50:26;101070.69;;;0.35;100.00
75036;BME280;64247;51.540;5.854;2023-01-20T11:52:49;101077.38;;;0.37;100.00